sensor_id;sensor_type;location;lat;lon;timestamp;temperature;humidity
63875;DHT22;51595;24.180;-110.296;2022-11-20T00:01:23;28.10;99.90
63875;DHT22;51595;24.180;-110.296;2022-11-20T00:03:55;28.10;99.90
63875;DHT22;51595;24.180;-110.296;2022-11-20T00:06:24;27.40;99.90
63875;DHT22;51595;24.180;-110.296;2022-11-20T00:08:53;27.00;99.90
63875;DHT22;51595;24.180;-110.296;2022-11-20T00:11:21;27.10;99.90
63875;DHT22;51595;24.180;-110.296;2022-11-20T00:13:51;26.90;99.90
63875;DHT22;51595;24.180;-110.296;2022-11-20T00:16:20;26.70;99.90
63875;DHT22;51595;24.180;-110.296;2022-11-20T00:18:47;26.70;99.90
63875;DHT22;51595;24.180;-110.296;2022-11-20T00:21:19;26.80;99.90
63875;DHT22;51595;24.180;-110.296;2022-11-20T00:23:48;27.10;99.90
63875;DHT22;51595;24.180;-110.296;2022-11-20T00:26:18;27.10;99.90
63875;DHT22;51595;24.180;-110.296;2022-11-20T00:28:49;26.90;99.90
63875;DHT22;51595;24.180;-110.296;2022-11-20T00:31:18;26.70;99.90
63875;DHT22;51595;24.180;-110.296;2022-11-20T00:33:47;26.60;99.90
63875;DHT22;51595;24.180;-110.296;2022-11-20T00:36:16;26.40;99.90
63875;DHT22;51595;24.180;-110.296;2022-11-20T00:38:43;26.20;99.90
63875;DHT22;51595;24.180;-110.296;2022-11-20T00:41:16;26.00;99.90
63875;DHT22;51595;24.180;-110.296;2022-11-20T00:43:42;25.90;99.90
63875;DHT22;51595;24.180;-110.296;2022-11-20T00:46:17;25.60;99.90
63875;DHT22;51595;24.180;-110.296;2022-11-20T00:48:44;25.40;99.90
63875;DHT22;51595;24.180;-110.296;2022-11-20T00:51:16;25.20;99.90
63875;DHT22;51595;24.180;-110.296;2022-11-20T00:53:43;25.10;99.90
63875;DHT22;51595;24.180;-110.296;2022-11-20T00:56:13;24.90;99.90
63875;DHT22;51595;24.180;-110.296;2022-11-20T00:58:41;24.80;99.90
63875;DHT22;51595;24.180;-110.296;2022-11-20T01:01:14;24.70;99.90
63875;DHT22;51595;24.180;-110.296;2022-11-20T01:03:45;24.80;99.90
63875;DHT22;51595;24.180;-110.296;2022-11-20T01:06:25;24.50;99.90
63875;DHT22;51595;24.180;-110.296;2022-11-20T01:08:54;24.60;99.90
63875;DHT22;51595;24.180;-110.296;2022-11-20T01:11:24;24.50;99.90
63875;DHT22;51595;24.180;-110.296;2022-11-20T01:13:51;24.40;99.90
63875;DHT22;51595;24.180;-110.296;2022-11-20T01:16:21;24.40;99.90
63875;DHT22;51595;24.180;-110.296;2022-11-20T01:18:50;24.40;99.90
63875;DHT22;51595;24.180;-110.296;2022-11-20T01:23:47;24.20;99.90
63875;DHT22;51595;24.180;-110.296;2022-11-20T01:26:17;24.20;99.90
63875;DHT22;51595;24.180;-110.296;2022-11-20T01:28:43;24.40;99.90
63875;DHT22;51595;24.180;-110.296;2022-11-20T01:31:27;24.30;99.90
63875;DHT22;51595;24.180;-110.296;2022-11-20T01:33:56;24.20;99.90
63875;DHT22;51595;24.180;-110.296;2022-11-20T01:36:25;24.20;99.90
63875;DHT22;51595;24.180;-110.296;2022-11-20T01:38:53;24.20;99.90
63875;DHT22;51595;24.180;-110.296;2022-11-20T01:41:20;24.20;99.90
63875;DHT22;51595;24.180;-110.296;2022-11-20T01:44:05;24.10;99.90
63875;DHT22;51595;24.180;-110.296;2022-11-20T01:47:03;24.20;99.90
63875;DHT22;51595;24.180;-110.296;2022-11-20T01:49:59;24.30;99.90
63875;DHT22;51595;24.180;-110.296;2022-11-20T01:52:34;24.30;99.90
63875;DHT22;51595;24.180;-110.296;2022-11-20T01:55:11;24.20;99.90
63875;DHT22;51595;24.180;-110.296;2022-11-20T01:57:40;24.20;99.90
63875;DHT22;51595;24.180;-110.296;2022-11-20T02:00:09;24.10;99.90
63875;DHT22;51595;24.180;-110.296;2022-11-20T02:02:37;24.10;99.90
63875;DHT22;51595;24.180;-110.296;2022-11-20T02:05:23;24.00;99.90
63875;DHT22;51595;24.180;-110.296;2022-11-20T02:07:52;24.00;99.90
63875;DHT22;51595;24.180;-110.296;2022-11-20T02:10:21;24.20;99.90
63875;DHT22;51595;24.180;-110.296;2022-11-20T02:12:48;24.00;99.90
63875;DHT22;51595;24.180;-110.296;2022-11-20T02:15:33;24.30;99.90
63875;DHT22;51595;24.180;-110.296;2022-11-20T02:18:00;24.40;99.90
63875;DHT22;51595;24.180;-110.296;2022-11-20T02:20:27;24.50;99.90
63875;DHT22;51595;24.180;-110.296;2022-11-20T02:25:26;24.50;99.90
63875;DHT22;51595;24.180;-110.296;2022-11-20T02:27:53;24.60;99.90
63875;DHT22;51595;24.180;-110.296;2022-11-20T02:30:20;24.70;99.90
63875;DHT22;51595;24.180;-110.296;2022-11-20T02:32:46;24.70;99.90
63875;DHT22;51595;24.180;-110.296;2022-11-20T02:37:47;24.70;99.90
63875;DHT22;51595;24.180;-110.296;2022-11-20T02:40:15;24.50;99.90
63875;DHT22;51595;24.180;-110.296;2022-11-20T02:42:41;24.50;99.90
63875;DHT22;51595;24.180;-110.296;2022-11-20T02:45:08;24.50;99.90
63875;DHT22;51595;24.180;-110.296;2022-11-20T02:47:35;24.40;99.90
63875;DHT22;51595;24.180;-110.296;2022-11-20T02:50:01;24.40;99.90
63875;DHT22;51595;24.180;-110.296;2022-11-20T02:52:28;24.40;99.90
63875;DHT22;51595;24.180;-110.296;2022-11-20T02:54:54;24.30;99.90
63875;DHT22;51595;24.180;-110.296;2022-11-20T02:57:21;24.30;99.90
63875;DHT22;51595;24.180;-110.296;2022-11-20T02:59:47;24.20;99.90
63875;DHT22;51595;24.180;-110.296;2022-11-20T03:02:14;24.20;99.90
63875;DHT22;51595;24.180;-110.296;2022-11-20T03:04:40;24.10;99.90
63875;DHT22;51595;24.180;-110.296;2022-11-20T03:07:08;23.90;99.90
63875;DHT22;51595;24.180;-110.296;2022-11-20T03:09:34;23.70;99.90
63875;DHT22;51595;24.180;-110.296;2022-11-20T03:12:03;23.70;99.90
63875;DHT22;51595;24.180;-110.296;2022-11-20T03:14:30;23.80;99.90
63875;DHT22;51595;24.180;-110.296;2022-11-20T03:16:56;23.80;99.90
63875;DHT22;51595;24.180;-110.296;2022-11-20T03:19:23;23.90;99.90
63875;DHT22;51595;24.180;-110.296;2022-11-20T03:21:49;23.90;99.90
63875;DHT22;51595;24.180;-110.296;2022-11-20T03:24:16;24.00;99.90
63875;DHT22;51595;24.180;-110.296;2022-11-20T03:26:42;23.80;99.90
63875;DHT22;51595;24.180;-110.296;2022-11-20T03:29:09;23.70;99.90
63875;DHT22;51595;24.180;-110.296;2022-11-20T03:31:37;23.60;99.90
63875;DHT22;51595;24.180;-110.296;2022-11-20T03:34:07;23.50;99.90
63875;DHT22;51595;24.180;-110.296;2022-11-20T03:36:34;23.50;99.90
63875;DHT22;51595;24.180;-110.296;2022-11-20T03:39:00;23.50;99.90
63875;DHT22;51595;24.180;-110.296;2022-11-20T03:41:29;23.60;99.90
63875;DHT22;51595;24.180;-110.296;2022-11-20T03:44:00;23.60;99.90
63875;DHT22;51595;24.180;-110.296;2022-11-20T03:46:27;23.50;99.90
63875;DHT22;51595;24.180;-110.296;2022-11-20T03:48:55;23.50;99.90
63875;DHT22;51595;24.180;-110.296;2022-11-20T03:51:26;23.50;99.90
63875;DHT22;51595;24.180;-110.296;2022-11-20T03:53:54;23.50;99.90
63875;DHT22;51595;24.180;-110.296;2022-11-20T03:56:26;23.40;99.90
63875;DHT22;51595;24.180;-110.296;2022-11-20T03:58:52;23.50;99.90
63875;DHT22;51595;24.180;-110.296;2022-11-20T04:01:22;23.60;99.90
63875;DHT22;51595;24.180;-110.296;2022-11-20T04:03:51;23.60;99.90
63875;DHT22;51595;24.180;-110.296;2022-11-20T04:06:28;23.50;99.90
63875;DHT22;51595;24.180;-110.296;2022-11-20T04:08:56;23.40;99.90
63875;DHT22;51595;24.180;-110.296;2022-11-20T04:11:27;23.30;99.90
63875;DHT22;51595;24.180;-110.296;2022-11-20T04:13:59;23.40;99.90
63875;DHT22;51595;24.180;-110.296;2022-11-20T04:16:28;23.30;99.90
63875;DHT22;51595;24.180;-110.296;2022-11-20T04:18:57;23.20;99.90
63875;DHT22;51595;24.180;-110.296;2022-11-20T04:21:24;23.20;99.90
63875;DHT22;51595;24.180;-110.296;2022-11-20T04:23:51;23.30;99.90
63875;DHT22;51595;24.180;-110.296;2022-11-20T04:26:19;23.40;99.90
63875;DHT22;51595;24.180;-110.296;2022-11-20T04:28:46;23.30;99.90
63875;DHT22;51595;24.180;-110.296;2022-11-20T04:31:15;23.30;99.90
63875;DHT22;51595;24.180;-110.296;2022-11-20T04:33:42;23.20;99.90
63875;DHT22;51595;24.180;-110.296;2022-11-20T04:36:20;23.10;99.90
63875;DHT22;51595;24.180;-110.296;2022-11-20T04:38:51;23.20;99.90
63875;DHT22;51595;24.180;-110.296;2022-11-20T04:41:19;23.10;99.90
63875;DHT22;51595;24.180;-110.296;2022-11-20T04:43:51;23.10;99.90
63875;DHT22;51595;24.180;-110.296;2022-11-20T04:46:20;23.00;99.90
63875;DHT22;51595;24.180;-110.296;2022-11-20T04:48:47;23.00;99.90
63875;DHT22;51595;24.180;-110.296;2022-11-20T04:51:13;23.00;99.90
63875;DHT22;51595;24.180;-110.296;2022-11-20T04:53:40;22.90;99.90
63875;DHT22;51595;24.180;-110.296;2022-11-20T04:56:08;22.80;99.90
63875;DHT22;51595;24.180;-110.296;2022-11-20T04:58:36;22.70;99.90
63875;DHT22;51595;24.180;-110.296;2022-11-20T05:01:13;22.60;99.90
63875;DHT22;51595;24.180;-110.296;2022-11-20T05:03:42;22.70;99.90
63875;DHT22;51595;24.180;-110.296;2022-11-20T05:06:13;22.60;99.90
63875;DHT22;51595;24.180;-110.296;2022-11-20T05:08:40;22.60;99.90
63875;DHT22;51595;24.180;-110.296;2022-11-20T05:11:09;22.60;99.90
63875;DHT22;51595;24.180;-110.296;2022-11-20T05:13:36;22.60;99.90
63875;DHT22;51595;24.180;-110.296;2022-11-20T05:16:08;22.60;99.90
63875;DHT22;51595;24.180;-110.296;2022-11-20T05:18:36;22.40;99.90
63875;DHT22;51595;24.180;-110.296;2022-11-20T05:21:03;22.40;99.90
63875;DHT22;51595;24.180;-110.296;2022-11-20T05:23:42;22.40;99.90
63875;DHT22;51595;24.180;-110.296;2022-11-20T05:26:18;22.40;99.90
63875;DHT22;51595;24.180;-110.296;2022-11-20T05:28:51;22.30;99.90
63875;DHT22;51595;24.180;-110.296;2022-11-20T05:31:20;22.10;99.90
63875;DHT22;51595;24.180;-110.296;2022-11-20T05:36:43;22.00;99.90
63875;DHT22;51595;24.180;-110.296;2022-11-20T05:39:11;21.70;99.90
63875;DHT22;51595;24.180;-110.296;2022-11-20T05:41:38;21.70;99.90
63875;DHT22;51595;24.180;-110.296;2022-11-20T05:44:04;21.70;99.90
63875;DHT22;51595;24.180;-110.296;2022-11-20T05:46:31;21.70;99.90
63875;DHT22;51595;24.180;-110.296;2022-11-20T05:48:58;21.80;99.90
63875;DHT22;51595;24.180;-110.296;2022-11-20T05:51:25;21.90;99.90
63875;DHT22;51595;24.180;-110.296;2022-11-20T05:53:51;21.90;99.90
63875;DHT22;51595;24.180;-110.296;2022-11-20T05:56:20;21.70;99.90
63875;DHT22;51595;24.180;-110.296;2022-11-20T05:58:47;21.70;99.90
63875;DHT22;51595;24.180;-110.296;2022-11-20T06:01:19;21.70;99.90
63875;DHT22;51595;24.180;-110.296;2022-11-20T06:03:49;22.00;99.90
63875;DHT22;51595;24.180;-110.296;2022-11-20T06:06:17;22.20;99.90
63875;DHT22;51595;24.180;-110.296;2022-11-20T06:08:44;22.40;99.90
63875;DHT22;51595;24.180;-110.296;2022-11-20T06:11:12;22.40;99.90
63875;DHT22;51595;24.180;-110.296;2022-11-20T06:13:39;22.30;99.90
63875;DHT22;51595;24.180;-110.296;2022-11-20T06:16:06;22.30;99.90
63875;DHT22;51595;24.180;-110.296;2022-11-20T06:18:33;22.30;99.90
63875;DHT22;51595;24.180;-110.296;2022-11-20T06:21:13;22.30;99.90
63875;DHT22;51595;24.180;-110.296;2022-11-20T06:23:41;22.20;99.90
63875;DHT22;51595;24.180;-110.296;2022-11-20T06:26:14;22.20;99.90
63875;DHT22;51595;24.180;-110.296;2022-11-20T06:28:41;22.10;99.90
63875;DHT22;51595;24.180;-110.296;2022-11-20T06:31:11;22.20;99.90
63875;DHT22;51595;24.180;-110.296;2022-11-20T06:33:37;22.10;99.90
63875;DHT22;51595;24.180;-110.296;2022-11-20T06:36:04;22.10;99.90
63875;DHT22;51595;24.180;-110.296;2022-11-20T06:38:32;22.10;99.90
63875;DHT22;51595;24.180;-110.296;2022-11-20T06:40:59;22.00;99.90
63875;DHT22;51595;24.180;-110.296;2022-11-20T06:46:03;22.00;99.90
63875;DHT22;51595;24.180;-110.296;2022-11-20T06:48:30;22.10;99.90
63875;DHT22;51595;24.180;-110.296;2022-11-20T06:50:57;22.00;99.90
63875;DHT22;51595;24.180;-110.296;2022-11-20T06:53:30;22.00;99.90
63875;DHT22;51595;24.180;-110.296;2022-11-20T06:56:07;21.90;99.90
63875;DHT22;51595;24.180;-110.296;2022-11-20T06:58:35;21.90;99.90
63875;DHT22;51595;24.180;-110.296;2022-11-20T07:01:12;21.90;99.90
63875;DHT22;51595;24.180;-110.296;2022-11-20T07:03:39;21.90;99.90
63875;DHT22;51595;24.180;-110.296;2022-11-20T07:06:06;22.00;99.90
63875;DHT22;51595;24.180;-110.296;2022-11-20T07:08:33;22.00;99.90
63875;DHT22;51595;24.180;-110.296;2022-11-20T07:11:02;22.00;99.90
63875;DHT22;51595;24.180;-110.296;2022-11-20T07:13:29;21.90;99.90
63875;DHT22;51595;24.180;-110.296;2022-11-20T07:16:06;21.80;99.90
63875;DHT22;51595;24.180;-110.296;2022-11-20T07:18:32;21.60;99.90
63875;DHT22;51595;24.180;-110.296;2022-11-20T07:21:04;21.80;99.90
63875;DHT22;51595;24.180;-110.296;2022-11-20T07:23:31;21.80;99.90
63875;DHT22;51595;24.180;-110.296;2022-11-20T07:26:04;21.80;99.90
63875;DHT22;51595;24.180;-110.296;2022-11-20T07:28:30;21.90;99.90
63875;DHT22;51595;24.180;-110.296;2022-11-20T07:30:57;21.90;99.90
63875;DHT22;51595;24.180;-110.296;2022-11-20T07:33:24;21.70;99.90
63875;DHT22;51595;24.180;-110.296;2022-11-20T07:35:50;21.80;99.90
63875;DHT22;51595;24.180;-110.296;2022-11-20T07:38:16;21.70;99.90
63875;DHT22;51595;24.180;-110.296;2022-11-20T07:40:54;21.70;99.90
63875;DHT22;51595;24.180;-110.296;2022-11-20T07:43:24;21.30;99.90
63875;DHT22;51595;24.180;-110.296;2022-11-20T07:45:51;21.30;99.90
63875;DHT22;51595;24.180;-110.296;2022-11-20T07:48:20;21.00;99.90
63875;DHT22;51595;24.180;-110.296;2022-11-20T07:50:46;21.00;99.90
63875;DHT22;51595;24.180;-110.296;2022-11-20T07:53:12;20.90;99.90
63875;DHT22;51595;24.180;-110.296;2022-11-20T07:55:39;20.80;99.90
63875;DHT22;51595;24.180;-110.296;2022-11-20T07:58:06;20.70;99.90
63875;DHT22;51595;24.180;-110.296;2022-11-20T08:00:33;20.60;99.90
63875;DHT22;51595;24.180;-110.296;2022-11-20T08:03:02;20.60;99.90
63875;DHT22;51595;24.180;-110.296;2022-11-20T08:05:28;20.40;99.90
63875;DHT22;51595;24.180;-110.296;2022-11-20T08:07:54;20.40;99.90
63875;DHT22;51595;24.180;-110.296;2022-11-20T08:10:21;20.40;99.90
63875;DHT22;51595;24.180;-110.296;2022-11-20T08:12:52;20.30;99.90
63875;DHT22;51595;24.180;-110.296;2022-11-20T08:15:38;20.40;99.90
63875;DHT22;51595;24.180;-110.296;2022-11-20T08:18:12;20.40;99.90
63875;DHT22;51595;24.180;-110.296;2022-11-20T08:20:40;20.40;99.90
63875;DHT22;51595;24.180;-110.296;2022-11-20T08:23:07;20.50;99.90
63875;DHT22;51595;24.180;-110.296;2022-11-20T08:25:35;20.40;99.90
63875;DHT22;51595;24.180;-110.296;2022-11-20T08:28:08;20.40;99.90
63875;DHT22;51595;24.180;-110.296;2022-11-20T08:30:36;20.40;99.90
63875;DHT22;51595;24.180;-110.296;2022-11-20T08:33:05;20.40;99.90
63875;DHT22;51595;24.180;-110.296;2022-11-20T08:35:35;20.40;99.90
63875;DHT22;51595;24.180;-110.296;2022-11-20T08:38:04;20.40;99.90
63875;DHT22;51595;24.180;-110.296;2022-11-20T08:40:31;20.40;99.90
63875;DHT22;51595;24.180;-110.296;2022-11-20T08:42:58;20.30;99.90
63875;DHT22;51595;24.180;-110.296;2022-11-20T08:45:25;20.30;99.90
63875;DHT22;51595;24.180;-110.296;2022-11-20T08:47:52;20.20;99.90
63875;DHT22;51595;24.180;-110.296;2022-11-20T08:50:18;20.20;99.90
63875;DHT22;51595;24.180;-110.296;2022-11-20T08:52:44;20.20;99.90
63875;DHT22;51595;24.180;-110.296;2022-11-20T08:55:11;20.20;99.90
63875;DHT22;51595;24.180;-110.296;2022-11-20T08:57:37;20.20;99.90
63875;DHT22;51595;24.180;-110.296;2022-11-20T09:00:06;20.20;99.90
63875;DHT22;51595;24.180;-110.296;2022-11-20T09:02:33;20.20;99.90
63875;DHT22;51595;24.180;-110.296;2022-11-20T09:05:00;20.10;99.90
63875;DHT22;51595;24.180;-110.296;2022-11-20T09:07:28;20.20;99.90
63875;DHT22;51595;24.180;-110.296;2022-11-20T09:09:55;20.20;99.90
63875;DHT22;51595;24.180;-110.296;2022-11-20T09:12:22;20.10;99.90
63875;DHT22;51595;24.180;-110.296;2022-11-20T09:14:57;20.20;99.90
63875;DHT22;51595;24.180;-110.296;2022-11-20T09:17:27;20.20;99.90
63875;DHT22;51595;24.180;-110.296;2022-11-20T09:24:56;20.20;99.90
63875;DHT22;51595;24.180;-110.296;2022-11-20T09:27:22;20.10;99.90
63875;DHT22;51595;24.180;-110.296;2022-11-20T09:29:51;20.00;99.90
63875;DHT22;51595;24.180;-110.296;2022-11-20T09:32:18;19.90;99.90
63875;DHT22;51595;24.180;-110.296;2022-11-20T09:34:44;19.90;99.90
63875;DHT22;51595;24.180;-110.296;2022-11-20T09:37:10;19.90;99.90
63875;DHT22;51595;24.180;-110.296;2022-11-20T09:39:37;19.90;99.90
63875;DHT22;51595;24.180;-110.296;2022-11-20T09:42:32;19.90;99.90
63875;DHT22;51595;24.180;-110.296;2022-11-20T09:53:46;19.90;99.90
63875;DHT22;51595;24.180;-110.296;2022-11-20T09:56:17;19.90;99.90
63875;DHT22;51595;24.180;-110.296;2022-11-20T09:58:50;19.90;99.90
63875;DHT22;51595;24.180;-110.296;2022-11-20T10:01:23;19.60;99.90
63875;DHT22;51595;24.180;-110.296;2022-11-20T10:04:12;19.50;99.90
63875;DHT22;51595;24.180;-110.296;2022-11-20T10:09:58;19.50;99.90
63875;DHT22;51595;24.180;-110.296;2022-11-20T10:13:01;19.50;99.90
63875;DHT22;51595;24.180;-110.296;2022-11-20T10:18:50;19.10;99.90
63875;DHT22;51595;24.180;-110.296;2022-11-20T10:24:24;19.10;99.90
63875;DHT22;51595;24.180;-110.296;2022-11-20T10:30:12;19.30;99.90
63875;DHT22;51595;24.180;-110.296;2022-11-20T10:32:48;19.40;99.90
63875;DHT22;51595;24.180;-110.296;2022-11-20T10:36:08;19.50;99.90
63875;DHT22;51595;24.180;-110.296;2022-11-20T10:38:13;19.60;99.90
63875;DHT22;51595;24.180;-110.296;2022-11-20T10:40:48;19.80;99.90
63875;DHT22;51595;24.180;-110.296;2022-11-20T10:43:32;19.90;99.90
63875;DHT22;51595;24.180;-110.296;2022-11-20T10:46:17;20.10;99.90
63875;DHT22;51595;24.180;-110.296;2022-11-20T10:48:45;20.30;99.90
63875;DHT22;51595;24.180;-110.296;2022-11-20T10:51:35;20.50;99.90
63875;DHT22;51595;24.180;-110.296;2022-11-20T10:54:11;20.30;99.90
63875;DHT22;51595;24.180;-110.296;2022-11-20T10:56:54;20.30;99.90
63875;DHT22;51595;24.180;-110.296;2022-11-20T11:02:21;20.30;99.90
63875;DHT22;51595;24.180;-110.296;2022-11-20T11:04:53;20.30;99.90
63875;DHT22;51595;24.180;-110.296;2022-11-20T11:07:39;20.30;99.90
63875;DHT22;51595;24.180;-110.296;2022-11-20T11:12:49;20.50;99.90
63875;DHT22;51595;24.180;-110.296;2022-11-20T11:15:35;20.50;99.90
63875;DHT22;51595;24.180;-110.296;2022-11-20T11:18:02;20.50;99.90
63875;DHT22;51595;24.180;-110.296;2022-11-20T11:20:29;20.40;99.90
63875;DHT22;51595;24.180;-110.296;2022-11-20T11:22:58;20.40;99.90
63875;DHT22;51595;24.180;-110.296;2022-11-20T11:25:55;20.40;99.90
63875;DHT22;51595;24.180;-110.296;2022-11-20T11:28:19;20.40;99.90
63875;DHT22;51595;24.180;-110.296;2022-11-20T11:30:46;20.30;99.90
63875;DHT22;51595;24.180;-110.296;2022-11-20T11:33:31;20.30;99.90
63875;DHT22;51595;24.180;-110.296;2022-11-20T11:36:17;20.30;99.90
63875;DHT22;51595;24.180;-110.296;2022-11-20T11:38:48;20.30;99.90
63875;DHT22;51595;24.180;-110.296;2022-11-20T11:41:20;20.30;99.90
63875;DHT22;51595;24.180;-110.296;2022-11-20T11:43:55;20.40;99.90
63875;DHT22;51595;24.180;-110.296;2022-11-20T11:46:49;20.50;99.90
63875;DHT22;51595;24.180;-110.296;2022-11-20T11:49:19;20.50;99.90
63875;DHT22;51595;24.180;-110.296;2022-11-20T11:52:03;20.60;99.90
63875;DHT22;51595;24.180;-110.296;2022-11-20T11:54:34;20.60;99.90
63875;DHT22;51595;24.180;-110.296;2022-11-20T12:00:12;20.40;99.90
63875;DHT22;51595;24.180;-110.296;2022-11-20T12:06:02;20.40;99.90
63875;DHT22;51595;24.180;-110.296;2022-11-20T12:10:58;20.40;99.90
63875;DHT22;51595;24.180;-110.296;2022-11-20T12:13:37;20.60;99.90
63875;DHT22;51595;24.180;-110.296;2022-11-20T12:16:07;20.60;99.90
63875;DHT22;51595;24.180;-110.296;2022-11-20T12:18:36;20.70;99.90
63875;DHT22;51595;24.180;-110.296;2022-11-20T12:24:06;20.00;99.90
63875;DHT22;51595;24.180;-110.296;2022-11-20T12:30:02;19.90;99.90
63875;DHT22;51595;24.180;-110.296;2022-11-20T12:43:25;19.30;99.90
63875;DHT22;51595;24.180;-110.296;2022-11-20T13:00:16;19.70;99.90
63875;DHT22;51595;24.180;-110.296;2022-11-20T13:05:51;20.30;99.90
63875;DHT22;51595;24.180;-110.296;2022-11-20T13:08:28;20.30;99.90
63875;DHT22;51595;24.180;-110.296;2022-11-20T13:11:14;20.40;99.90
63875;DHT22;51595;24.180;-110.296;2022-11-20T13:19:15;20.40;99.90
63875;DHT22;51595;24.180;-110.296;2022-11-20T13:21:47;20.40;99.90
63875;DHT22;51595;24.180;-110.296;2022-11-20T13:24:22;20.40;99.90
63875;DHT22;51595;24.180;-110.296;2022-11-20T13:29:35;20.60;99.90
63875;DHT22;51595;24.180;-110.296;2022-11-20T13:34:32;20.50;99.90
63875;DHT22;51595;24.180;-110.296;2022-11-20T13:36:59;20.40;99.90
63875;DHT22;51595;24.180;-110.296;2022-11-20T13:39:35;20.40;99.90
63875;DHT22;51595;24.180;-110.296;2022-11-20T13:42:26;20.30;99.90
63875;DHT22;51595;24.180;-110.296;2022-11-20T13:44:55;20.30;99.90
63875;DHT22;51595;24.180;-110.296;2022-11-20T13:47:26;20.30;99.90
63875;DHT22;51595;24.180;-110.296;2022-11-20T13:49:55;20.40;99.90
63875;DHT22;51595;24.180;-110.296;2022-11-20T14:01:20;20.70;99.90
63875;DHT22;51595;24.180;-110.296;2022-11-20T14:03:48;20.80;99.90
63875;DHT22;51595;24.180;-110.296;2022-11-20T14:06:32;20.80;99.90
63875;DHT22;51595;24.180;-110.296;2022-11-20T14:09:00;20.70;99.90
63875;DHT22;51595;24.180;-110.296;2022-11-20T14:11:28;20.80;99.90
63875;DHT22;51595;24.180;-110.296;2022-11-20T14:14:24;20.80;99.90
63875;DHT22;51595;24.180;-110.296;2022-11-20T14:16:50;21.00;99.90
63875;DHT22;51595;24.180;-110.296;2022-11-20T14:21:53;20.90;99.90
63875;DHT22;51595;24.180;-110.296;2022-11-20T14:24:22;21.00;99.90
63875;DHT22;51595;24.180;-110.296;2022-11-20T14:26:50;21.00;99.90
63875;DHT22;51595;24.180;-110.296;2022-11-20T14:29:21;21.10;99.90
63875;DHT22;51595;24.180;-110.296;2022-11-20T14:31:52;21.20;99.90
63875;DHT22;51595;24.180;-110.296;2022-11-20T14:34:22;21.50;99.90
63875;DHT22;51595;24.180;-110.296;2022-11-20T14:36:52;21.70;99.90
63875;DHT22;51595;24.180;-110.296;2022-11-20T14:39:21;22.20;99.90
63875;DHT22;51595;24.180;-110.296;2022-11-20T14:41:57;22.60;99.90
63875;DHT22;51595;24.180;-110.296;2022-11-20T14:44:24;23.00;99.90
63875;DHT22;51595;24.180;-110.296;2022-11-20T14:46:52;23.20;99.90
63875;DHT22;51595;24.180;-110.296;2022-11-20T14:49:18;23.10;99.90
63875;DHT22;51595;24.180;-110.296;2022-11-20T14:51:46;22.80;99.90
63875;DHT22;51595;24.180;-110.296;2022-11-20T14:56:41;22.50;99.90
63875;DHT22;51595;24.180;-110.296;2022-11-20T14:59:09;22.40;99.90
63875;DHT22;51595;24.180;-110.296;2022-11-20T15:01:36;22.50;99.90
63875;DHT22;51595;24.180;-110.296;2022-11-20T15:04:10;22.60;99.90
63875;DHT22;51595;24.180;-110.296;2022-11-20T15:06:48;22.60;99.90
63875;DHT22;51595;24.180;-110.296;2022-11-20T15:09:15;22.60;99.90
63875;DHT22;51595;24.180;-110.296;2022-11-20T15:11:55;22.60;99.90
63875;DHT22;51595;24.180;-110.296;2022-11-20T15:14:24;22.70;99.90
63875;DHT22;51595;24.180;-110.296;2022-11-20T15:16:51;22.70;99.90
63875;DHT22;51595;24.180;-110.296;2022-11-20T15:19:22;22.70;99.90
63875;DHT22;51595;24.180;-110.296;2022-11-20T15:21:49;23.00;99.90
63875;DHT22;51595;24.180;-110.296;2022-11-20T15:24:16;23.10;99.90
63875;DHT22;51595;24.180;-110.296;2022-11-20T15:26:43;22.80;99.90
63875;DHT22;51595;24.180;-110.296;2022-11-20T15:29:15;22.60;99.90
63875;DHT22;51595;24.180;-110.296;2022-11-20T15:31:45;22.70;99.90
63875;DHT22;51595;24.180;-110.296;2022-11-20T15:34:13;22.70;99.90
63875;DHT22;51595;24.180;-110.296;2022-11-20T15:36:40;22.70;99.90
63875;DHT22;51595;24.180;-110.296;2022-11-20T15:39:07;22.70;99.90
63875;DHT22;51595;24.180;-110.296;2022-11-20T15:41:35;22.70;99.90
63875;DHT22;51595;24.180;-110.296;2022-11-20T15:44:02;22.70;99.90
63875;DHT22;51595;24.180;-110.296;2022-11-20T15:46:31;22.70;99.90
63875;DHT22;51595;24.180;-110.296;2022-11-20T15:49:05;22.60;99.90
63875;DHT22;51595;24.180;-110.296;2022-11-20T15:51:34;22.70;99.90
63875;DHT22;51595;24.180;-110.296;2022-11-20T15:54:34;22.80;99.90
63875;DHT22;51595;24.180;-110.296;2022-11-20T15:56:54;23.10;99.90
63875;DHT22;51595;24.180;-110.296;2022-11-20T15:59:20;23.20;99.90
63875;DHT22;51595;24.180;-110.296;2022-11-20T16:01:47;23.10;99.90
63875;DHT22;51595;24.180;-110.296;2022-11-20T16:04:15;23.30;99.90
63875;DHT22;51595;24.180;-110.296;2022-11-20T16:06:42;23.40;99.90
63875;DHT22;51595;24.180;-110.296;2022-11-20T16:09:09;23.10;99.90
63875;DHT22;51595;24.180;-110.296;2022-11-20T16:11:36;23.10;99.90
63875;DHT22;51595;24.180;-110.296;2022-11-20T16:14:03;23.40;99.90
63875;DHT22;51595;24.180;-110.296;2022-11-20T16:16:48;23.40;99.90
63875;DHT22;51595;24.180;-110.296;2022-11-20T16:19:14;23.50;99.90
63875;DHT22;51595;24.180;-110.296;2022-11-20T16:21:42;23.60;99.90
63875;DHT22;51595;24.180;-110.296;2022-11-20T16:24:11;23.60;99.90
63875;DHT22;51595;24.180;-110.296;2022-11-20T16:26:39;23.70;99.90
63875;DHT22;51595;24.180;-110.296;2022-11-20T16:29:07;23.90;99.90
63875;DHT22;51595;24.180;-110.296;2022-11-20T16:31:33;24.20;99.90
63875;DHT22;51595;24.180;-110.296;2022-11-20T16:34:03;23.80;99.90
63875;DHT22;51595;24.180;-110.296;2022-11-20T16:36:29;23.90;99.90
63875;DHT22;51595;24.180;-110.296;2022-11-20T16:39:01;23.90;99.90
63875;DHT22;51595;24.180;-110.296;2022-11-20T16:41:30;23.60;99.90
63875;DHT22;51595;24.180;-110.296;2022-11-20T16:43:58;24.00;99.90
63875;DHT22;51595;24.180;-110.296;2022-11-20T16:46:30;24.30;99.90
63875;DHT22;51595;24.180;-110.296;2022-11-20T16:49:01;24.10;99.90
63875;DHT22;51595;24.180;-110.296;2022-11-20T16:51:30;24.60;99.90
63875;DHT22;51595;24.180;-110.296;2022-11-20T16:53:57;24.50;99.90
63875;DHT22;51595;24.180;-110.296;2022-11-20T16:56:27;24.80;99.90
63875;DHT22;51595;24.180;-110.296;2022-11-20T16:58:56;24.60;99.90
63875;DHT22;51595;24.180;-110.296;2022-11-20T17:01:25;24.30;99.90